sensor_id;sensor_type;location;lat;lon;timestamp;P1;durP1;ratioP1;P2;durP2;ratioP2
10769;SDS011;5437;50.852;4.438;2022-12-29T02:09:02;1.80;;;0.80;;
10769;SDS011;5437;50.852;4.438;2022-12-29T02:11:28;2.33;;;0.70;;
10769;SDS011;5437;50.852;4.438;2022-12-29T02:13:56;0.80;;;0.57;;
10769;SDS011;5437;50.852;4.438;2022-12-29T02:24:05;1.30;;;0.63;;
10769;SDS011;5437;50.852;4.438;2022-12-29T02:26:39;1.73;;;0.50;;
10769;SDS011;5437;50.852;4.438;2022-12-29T02:29:20;1.27;;;0.50;;
10769;SDS011;5437;50.852;4.438;2022-12-29T02:36:46;1.88;;;0.60;;
10769;SDS011;5437;50.852;4.438;2022-12-29T02:40:17;1.52;;;0.60;;
10769;SDS011;5437;50.852;4.438;2022-12-29T02:42:13;0.93;;;0.68;;
10769;SDS011;5437;50.852;4.438;2022-12-29T02:49:37;2.38;;;0.70;;
10769;SDS011;5437;50.852;4.438;2022-12-29T02:52:08;1.65;;;0.50;;
10769;SDS011;5437;50.852;4.438;2022-12-29T02:54:37;1.92;;;0.65;;
10769;SDS011;5437;50.852;4.438;2022-12-29T02:57:48;1.00;;;0.57;;
10769;SDS011;5437;50.852;4.438;2022-12-29T03:12:56;2.78;;;0.68;;
10769;SDS011;5437;50.852;4.438;2022-12-29T03:15:55;3.25;;;0.80;;
10769;SDS011;5437;50.852;4.438;2022-12-29T03:21:17;2.53;;;0.80;;
10769;SDS011;5437;50.852;4.438;2022-12-29T03:23:44;2.05;;;0.93;;
10769;SDS011;5437;50.852;4.438;2022-12-29T03:26:15;1.02;;;0.70;;
10769;SDS011;5437;50.852;4.438;2022-12-29T03:28:49;1.30;;;0.75;;
10769;SDS011;5437;50.852;4.438;2022-12-29T03:31:16;1.45;;;0.77;;
10769;SDS011;5437;50.852;4.438;2022-12-29T03:33:43;0.80;;;0.63;;
10769;SDS011;5437;50.852;4.438;2022-12-29T03:36:11;1.00;;;0.60;;
10769;SDS011;5437;50.852;4.438;2022-12-29T03:38:39;1.92;;;0.68;;
10769;SDS011;5437;50.852;4.438;2022-12-29T03:41:08;2.45;;;0.73;;
10769;SDS011;5437;50.852;4.438;2022-12-29T03:43:35;1.90;;;0.70;;
10769;SDS011;5437;50.852;4.438;2022-12-29T03:46:01;1.75;;;0.70;;
10769;SDS011;5437;50.852;4.438;2022-12-29T03:48:27;2.60;;;0.88;;
10769;SDS011;5437;50.852;4.438;2022-12-29T03:50:53;2.83;;;0.82;;
10769;SDS011;5437;50.852;4.438;2022-12-29T03:53:19;2.60;;;0.90;;
10769;SDS011;5437;50.852;4.438;2022-12-29T03:55:45;2.15;;;0.95;;
10769;SDS011;5437;50.852;4.438;2022-12-29T03:58:11;2.30;;;0.90;;
10769;SDS011;5437;50.852;4.438;2022-12-29T04:00:37;1.15;;;0.90;;
10769;SDS011;5437;50.852;4.438;2022-12-29T04:03:03;3.40;;;1.10;;
10769;SDS011;5437;50.852;4.438;2022-12-29T04:05:29;3.78;;;1.10;;
10769;SDS011;5437;50.852;4.438;2022-12-29T04:07:56;2.75;;;1.30;;
10769;SDS011;5437;50.852;4.438;2022-12-29T04:10:22;1.83;;;0.93;;
10769;SDS011;5437;50.852;4.438;2022-12-29T04:12:48;4.07;;;1.00;;
10769;SDS011;5437;50.852;4.438;2022-12-29T04:15:14;3.40;;;0.93;;
10769;SDS011;5437;50.852;4.438;2022-12-29T04:17:40;3.75;;;1.15;;
10769;SDS011;5437;50.852;4.438;2022-12-29T04:20:06;2.88;;;0.90;;
10769;SDS011;5437;50.852;4.438;2022-12-29T04:23:00;1.38;;;0.90;;
10769;SDS011;5437;50.852;4.438;2022-12-29T04:25:26;3.58;;;0.88;;
10769;SDS011;5437;50.852;4.438;2022-12-29T04:27:53;4.75;;;0.95;;
10769;SDS011;5437;50.852;4.438;2022-12-29T04:30:19;2.58;;;0.90;;
10769;SDS011;5437;50.852;4.438;2022-12-29T04:32:45;5.38;;;1.10;;
10769;SDS011;5437;50.852;4.438;2022-12-29T04:35:11;3.00;;;1.10;;
10769;SDS011;5437;50.852;4.438;2022-12-29T04:37:37;3.05;;;0.90;;
10769;SDS011;5437;50.852;4.438;2022-12-29T04:40:03;2.20;;;1.17;;
10769;SDS011;5437;50.852;4.438;2022-12-29T04:42:29;4.35;;;1.27;;
10769;SDS011;5437;50.852;4.438;2022-12-29T04:44:55;4.22;;;1.35;;
10769;SDS011;5437;50.852;4.438;2022-12-29T04:47:21;2.05;;;0.98;;
10769;SDS011;5437;50.852;4.438;2022-12-29T04:49:47;1.92;;;0.90;;
10769;SDS011;5437;50.852;4.438;2022-12-29T04:52:13;3.55;;;0.98;;
10769;SDS011;5437;50.852;4.438;2022-12-29T04:54:39;4.20;;;1.00;;
10769;SDS011;5437;50.852;4.438;2022-12-29T04:57:05;2.92;;;1.27;;
10769;SDS011;5437;50.852;4.438;2022-12-29T04:59:31;3.72;;;1.02;;
10769;SDS011;5437;50.852;4.438;2022-12-29T05:01:57;3.75;;;1.17;;
10769;SDS011;5437;50.852;4.438;2022-12-29T05:04:23;1.30;;;1.00;;
10769;SDS011;5437;50.852;4.438;2022-12-29T05:06:49;2.38;;;0.95;;
10769;SDS011;5437;50.852;4.438;2022-12-29T05:09:15;4.53;;;1.27;;
10769;SDS011;5437;50.852;4.438;2022-12-29T05:11:41;4.38;;;1.20;;
10769;SDS011;5437;50.852;4.438;2022-12-29T05:14:07;3.72;;;1.15;;
10769;SDS011;5437;50.852;4.438;2022-12-29T05:16:33;4.45;;;1.05;;
10769;SDS011;5437;50.852;4.438;2022-12-29T05:18:59;5.03;;;1.35;;
10769;SDS011;5437;50.852;4.438;2022-12-29T05:21:25;4.25;;;1.10;;
10769;SDS011;5437;50.852;4.438;2022-12-29T05:23:51;2.83;;;0.90;;
10769;SDS011;5437;50.852;4.438;2022-12-29T05:26:17;4.10;;;1.00;;
10769;SDS011;5437;50.852;4.438;2022-12-29T05:28:43;3.28;;;1.23;;
10769;SDS011;5437;50.852;4.438;2022-12-29T05:31:09;2.20;;;1.02;;
10769;SDS011;5437;50.852;4.438;2022-12-29T05:33:35;3.85;;;0.93;;
10769;SDS011;5437;50.852;4.438;2022-12-29T05:36:05;3.42;;;1.38;;
10769;SDS011;5437;50.852;4.438;2022-12-29T05:38:31;3.80;;;1.10;;
10769;SDS011;5437;50.852;4.438;2022-12-29T05:40:57;2.83;;;1.00;;
10769;SDS011;5437;50.852;4.438;2022-12-29T05:43:23;6.75;;;1.23;;
10769;SDS011;5437;50.852;4.438;2022-12-29T05:45:49;6.05;;;1.30;;
10769;SDS011;5437;50.852;4.438;2022-12-29T05:48:15;3.60;;;0.98;;
10769;SDS011;5437;50.852;4.438;2022-12-29T05:50:41;4.50;;;1.30;;
10769;SDS011;5437;50.852;4.438;2022-12-29T05:53:07;4.53;;;1.40;;
10769;SDS011;5437;50.852;4.438;2022-12-29T05:55:34;4.07;;;1.15;;
10769;SDS011;5437;50.852;4.438;2022-12-29T05:58:00;5.82;;;1.35;;
10769;SDS011;5437;50.852;4.438;2022-12-29T06:00:26;5.05;;;1.20;;
10769;SDS011;5437;50.852;4.438;2022-12-29T06:02:52;4.47;;;1.33;;
10769;SDS011;5437;50.852;4.438;2022-12-29T06:05:18;7.95;;;1.75;;
10769;SDS011;5437;50.852;4.438;2022-12-29T06:07:44;3.35;;;1.35;;
10769;SDS011;5437;50.852;4.438;2022-12-29T06:10:10;5.60;;;1.48;;
10769;SDS011;5437;50.852;4.438;2022-12-29T06:12:36;5.22;;;1.33;;
10769;SDS011;5437;50.852;4.438;2022-12-29T06:15:02;4.25;;;1.30;;
10769;SDS011;5437;50.852;4.438;2022-12-29T06:17:28;4.43;;;1.15;;
10769;SDS011;5437;50.852;4.438;2022-12-29T06:19:54;4.40;;;1.60;;
10769;SDS011;5437;50.852;4.438;2022-12-29T06:22:20;3.33;;;1.17;;
10769;SDS011;5437;50.852;4.438;2022-12-29T06:24:46;4.20;;;1.35;;
10769;SDS011;5437;50.852;4.438;2022-12-29T06:27:12;3.63;;;1.27;;
10769;SDS011;5437;50.852;4.438;2022-12-29T06:29:39;4.97;;;1.30;;
10769;SDS011;5437;50.852;4.438;2022-12-29T06:32:05;5.47;;;1.70;;
10769;SDS011;5437;50.852;4.438;2022-12-29T06:34:32;5.95;;;1.40;;
10769;SDS011;5437;50.852;4.438;2022-12-29T06:36:58;5.60;;;1.30;;
10769;SDS011;5437;50.852;4.438;2022-12-29T06:39:24;8.13;;;1.50;;
10769;SDS011;5437;50.852;4.438;2022-12-29T06:41:53;6.28;;;1.38;;
10769;SDS011;5437;50.852;4.438;2022-12-29T06:44:20;6.88;;;1.75;;
10769;SDS011;5437;50.852;4.438;2022-12-29T06:46:47;4.65;;;1.35;;
10769;SDS011;5437;50.852;4.438;2022-12-29T06:49:13;4.50;;;1.60;;
10769;SDS011;5437;50.852;4.438;2022-12-29T06:51:39;5.70;;;1.67;;
10769;SDS011;5437;50.852;4.438;2022-12-29T06:54:05;10.05;;;1.58;;
10769;SDS011;5437;50.852;4.438;2022-12-29T06:56:31;5.15;;;1.52;;
10769;SDS011;5437;50.852;4.438;2022-12-29T06:58:57;6.82;;;1.40;;
10769;SDS011;5437;50.852;4.438;2022-12-29T07:01:25;6.20;;;1.55;;
10769;SDS011;5437;50.852;4.438;2022-12-29T07:03:51;8.15;;;2.15;;
10769;SDS011;5437;50.852;4.438;2022-12-29T07:06:17;6.25;;;1.45;;
10769;SDS011;5437;50.852;4.438;2022-12-29T07:08:43;5.15;;;1.35;;
10769;SDS011;5437;50.852;4.438;2022-12-29T07:11:09;4.75;;;1.73;;
10769;SDS011;5437;50.852;4.438;2022-12-29T07:13:36;4.40;;;1.40;;
10769;SDS011;5437;50.852;4.438;2022-12-29T07:16:08;6.93;;;1.67;;
10769;SDS011;5437;50.852;4.438;2022-12-29T07:18:35;4.53;;;1.20;;
10769;SDS011;5437;50.852;4.438;2022-12-29T07:21:01;7.63;;;1.60;;
10769;SDS011;5437;50.852;4.438;2022-12-29T07:23:27;5.70;;;1.30;;
10769;SDS011;5437;50.852;4.438;2022-12-29T07:26:06;4.50;;;1.40;;
10769;SDS011;5437;50.852;4.438;2022-12-29T07:28:33;4.13;;;1.35;;
10769;SDS011;5437;50.852;4.438;2022-12-29T07:31:00;6.22;;;1.55;;
10769;SDS011;5437;50.852;4.438;2022-12-29T07:33:28;7.10;;;1.67;;
10769;SDS011;5437;50.852;4.438;2022-12-29T07:35:54;5.32;;;1.30;;
10769;SDS011;5437;50.852;4.438;2022-12-29T07:38:20;7.68;;;1.60;;
10769;SDS011;5437;50.852;4.438;2022-12-29T07:40:46;7.18;;;1.85;;
10769;SDS011;5437;50.852;4.438;2022-12-29T07:43:12;7.15;;;1.60;;
10769;SDS011;5437;50.852;4.438;2022-12-29T07:45:38;5.80;;;1.60;;
10769;SDS011;5437;50.852;4.438;2022-12-29T07:48:04;6.75;;;1.65;;
10769;SDS011;5437;50.852;4.438;2022-12-29T07:50:34;6.60;;;1.48;;
10769;SDS011;5437;50.852;4.438;2022-12-29T07:53:00;6.85;;;1.58;;
10769;SDS011;5437;50.852;4.438;2022-12-29T07:55:27;4.97;;;1.45;;
10769;SDS011;5437;50.852;4.438;2022-12-29T07:57:53;4.75;;;1.23;;
10769;SDS011;5437;50.852;4.438;2022-12-29T08:00:19;5.57;;;1.70;;
10769;SDS011;5437;50.852;4.438;2022-12-29T08:02:45;5.78;;;1.48;;
10769;SDS011;5437;50.852;4.438;2022-12-29T08:05:11;6.50;;;1.90;;
10769;SDS011;5437;50.852;4.438;2022-12-29T08:07:37;6.22;;;1.60;;
10769;SDS011;5437;50.852;4.438;2022-12-29T08:10:04;5.57;;;1.67;;
10769;SDS011;5437;50.852;4.438;2022-12-29T08:12:30;3.75;;;1.42;;
10769;SDS011;5437;50.852;4.438;2022-12-29T08:14:56;6.88;;;1.80;;
10769;SDS011;5437;50.852;4.438;2022-12-29T08:17:22;10.35;;;1.80;;
10769;SDS011;5437;50.852;4.438;2022-12-29T08:19:48;7.80;;;1.70;;
10769;SDS011;5437;50.852;4.438;2022-12-29T08:22:14;6.35;;;1.80;;
10769;SDS011;5437;50.852;4.438;2022-12-29T08:24:40;7.95;;;1.70;;
10769;SDS011;5437;50.852;4.438;2022-12-29T08:27:06;5.50;;;1.52;;
10769;SDS011;5437;50.852;4.438;2022-12-29T08:29:32;7.25;;;2.00;;
10769;SDS011;5437;50.852;4.438;2022-12-29T08:31:58;5.43;;;1.70;;
10769;SDS011;5437;50.852;4.438;2022-12-29T08:34:24;6.60;;;1.58;;
10769;SDS011;5437;50.852;4.438;2022-12-29T08:36:50;6.25;;;1.67;;
10769;SDS011;5437;50.852;4.438;2022-12-29T08:39:16;8.18;;;1.70;;
10769;SDS011;5437;50.852;4.438;2022-12-29T08:41:43;5.50;;;1.55;;
10769;SDS011;5437;50.852;4.438;2022-12-29T08:44:09;8.57;;;2.20;;
10769;SDS011;5437;50.852;4.438;2022-12-29T08:46:35;8.02;;;1.88;;
10769;SDS011;5437;50.852;4.438;2022-12-29T08:49:01;5.07;;;1.67;;
10769;SDS011;5437;50.852;4.438;2022-12-29T08:51:27;6.80;;;1.63;;
10769;SDS011;5437;50.852;4.438;2022-12-29T08:53:53;7.68;;;1.70;;
10769;SDS011;5437;50.852;4.438;2022-12-29T08:56:19;8.77;;;1.90;;
10769;SDS011;5437;50.852;4.438;2022-12-29T08:58:45;6.13;;;2.10;;
10769;SDS011;5437;50.852;4.438;2022-12-29T09:01:11;4.45;;;1.88;;
10769;SDS011;5437;50.852;4.438;2022-12-29T09:03:37;4.57;;;1.55;;
10769;SDS011;5437;50.852;4.438;2022-12-29T09:06:03;6.22;;;1.70;;
10769;SDS011;5437;50.852;4.438;2022-12-29T09:08:29;5.30;;;1.40;;
10769;SDS011;5437;50.852;4.438;2022-12-29T09:10:55;7.90;;;1.70;;
10769;SDS011;5437;50.852;4.438;2022-12-29T09:13:21;4.65;;;1.42;;
10769;SDS011;5437;50.852;4.438;2022-12-29T09:15:47;9.15;;;2.03;;
10769;SDS011;5437;50.852;4.438;2022-12-29T09:18:13;5.45;;;1.50;;
10769;SDS011;5437;50.852;4.438;2022-12-29T09:20:39;7.10;;;1.75;;
10769;SDS011;5437;50.852;4.438;2022-12-29T09:23:05;8.00;;;1.50;;
10769;SDS011;5437;50.852;4.438;2022-12-29T09:25:31;8.88;;;1.80;;
10769;SDS011;5437;50.852;4.438;2022-12-29T09:27:59;8.10;;;2.13;;
10769;SDS011;5437;50.852;4.438;2022-12-29T09:30:27;8.40;;;2.10;;
10769;SDS011;5437;50.852;4.438;2022-12-29T09:32:53;6.28;;;1.92;;
10769;SDS011;5437;50.852;4.438;2022-12-29T09:35:19;10.75;;;2.33;;
10769;SDS011;5437;50.852;4.438;2022-12-29T09:37:45;5.18;;;1.52;;
10769;SDS011;5437;50.852;4.438;2022-12-29T09:40:30;6.35;;;1.75;;
10769;SDS011;5437;50.852;4.438;2022-12-29T09:45:49;9.55;;;1.92;;
10769;SDS011;5437;50.852;4.438;2022-12-29T09:48:20;8.68;;;1.83;;
10769;SDS011;5437;50.852;4.438;2022-12-29T09:50:48;9.63;;;2.05;;
10769;SDS011;5437;50.852;4.438;2022-12-29T09:53:21;10.10;;;1.70;;
10769;SDS011;5437;50.852;4.438;2022-12-29T09:55:48;9.30;;;2.15;;
10769;SDS011;5437;50.852;4.438;2022-12-29T09:58:23;7.38;;;2.17;;
10769;SDS011;5437;50.852;4.438;2022-12-29T10:06:15;10.20;;;2.00;;
10769;SDS011;5437;50.852;4.438;2022-12-29T10:13:57;7.93;;;2.03;;
10769;SDS011;5437;50.852;4.438;2022-12-29T10:16:27;9.70;;;2.25;;
10769;SDS011;5437;50.852;4.438;2022-12-29T10:24:03;7.65;;;1.75;;
10769;SDS011;5437;50.852;4.438;2022-12-29T10:26:33;6.07;;;2.10;;
10769;SDS011;5437;50.852;4.438;2022-12-29T10:29:05;9.13;;;2.20;;
10769;SDS011;5437;50.852;4.438;2022-12-29T10:31:33;7.80;;;1.90;;
10769;SDS011;5437;50.852;4.438;2022-12-29T10:34:02;9.32;;;2.30;;
10769;SDS011;5437;50.852;4.438;2022-12-29T10:36:48;8.88;;;2.17;;
10769;SDS011;5437;50.852;4.438;2022-12-29T10:42:11;5.88;;;1.95;;
10769;SDS011;5437;50.852;4.438;2022-12-29T10:44:39;8.27;;;1.77;;
10769;SDS011;5437;50.852;4.438;2022-12-29T10:47:07;8.25;;;1.55;;
10769;SDS011;5437;50.852;4.438;2022-12-29T10:49:37;6.03;;;2.10;;
10769;SDS011;5437;50.852;4.438;2022-12-29T10:52:04;6.80;;;2.28;;
10769;SDS011;5437;50.852;4.438;2022-12-29T10:54:45;9.32;;;1.80;;
10769;SDS011;5437;50.852;4.438;2022-12-29T10:57:22;9.77;;;2.00;;
10769;SDS011;5437;50.852;4.438;2022-12-29T10:59:50;7.68;;;2.03;;
10769;SDS011;5437;50.852;4.438;2022-12-29T11:02:23;6.80;;;1.63;;
10769;SDS011;5437;50.852;4.438;2022-12-29T11:07:18;8.13;;;2.42;;
10769;SDS011;5437;50.852;4.438;2022-12-29T11:09:45;7.30;;;1.95;;
10769;SDS011;5437;50.852;4.438;2022-12-29T11:14:46;4.13;;;1.65;;
10769;SDS011;5437;50.852;4.438;2022-12-29T11:17:16;7.53;;;1.95;;
